Time;durP1;ratioP1;P1;durP2;ratioP2;P2;SDS_P1;SDS_P2;PMS_P1;PMS_P2;Temp;Humidity;BMP_temperature;BMP_pressure;BME280_temperature;BME280_humidity;BME280_pressure;Samples;Min_cycle;Max_cycle;Signal;HPM_P1;HPM_P2
2022/03/18 00:01:24;;;;;;;25.90;23.13;;;;;;;5.59;100.00;98469.31;4990910;28;20901;-50
2022/03/18 00:03:53;;;;;;;26.47;23.43;;;;;;;5.65;100.00;98467.00;5003751;28;20732;-51
2022/03/18 00:06:21;;;;;;;27.10;23.77;;;;;;;5.82;100.00;98472.75;4994632;28;20209;-51
2022/03/18 00:08:50;;;;;;;25.83;22.80;;;;;;;5.84;100.00;98473.47;5011663;28;20303;-53
2022/03/18 00:11:19;;;;;;;25.20;22.43;;;;;;;5.80;100.00;98472.03;4967452;28;20266;-52
2022/03/18 00:13:48;;;;;;;25.53;22.97;;;;;;;5.73;100.00;98476.94;5010748;28;20623;-53
2022/03/18 00:16:16;;;;;;;27.83;23.43;;;;;;;5.66;100.00;98486.25;5009235;28;20299;-53
2022/03/18 00:18:45;;;;;;;26.43;23.30;;;;;;;5.91;100.00;98479.06;4986424;28;20236;-51
2022/03/18 00:21:13;;;;;;;27.40;23.57;;;;;;;5.90;100.00;98480.03;5005794;28;20270;-49
2022/03/18 00:23:41;;;;;;;29.80;25.83;;;;;;;5.98;100.00;98479.41;4993981;28;20281;-52
2022/03/18 00:26:10;;;;;;;29.53;25.37;;;;;;;5.94;100.00;98484.91;5000588;28;20233;-53
2022/03/18 00:28:42;;;;;;;29.43;24.17;;;;;;;5.97;100.00;98478.59;4990390;28;20588;-51
2022/03/18 00:31:12;;;;;;;28.27;24.10;;;;;;;5.71;100.00;98486.75;5009424;28;20334;-54
2022/03/18 00:33:41;;;;;;;27.80;23.73;;;;;;;5.76;100.00;98481.94;4989562;28;20962;-53
2022/03/18 00:36:09;;;;;;;29.83;25.40;;;;;;;5.67;100.00;98487.09;5007790;28;20550;-53
2022/03/18 00:38:37;;;;;;;30.33;25.73;;;;;;;5.76;100.00;98489.84;4991793;28;20232;-51
2022/03/18 00:41:05;;;;;;;35.00;27.03;;;;;;;5.76;100.00;98481.94;5007170;28;20216;-48
2022/03/18 00:43:33;;;;;;;30.20;25.50;;;;;;;5.63;100.00;98489.13;4966675;28;20326;-56
2022/03/18 00:46:01;;;;;;;28.23;25.17;;;;;;;5.60;100.00;98492.00;5005729;28;21502;-52
2022/03/18 00:54:02;;;;;;;29.80;26.50;;;;;;;5.57;100.00;98490.44;4991843;28;20497;-52
2022/03/18 00:56:31;;;;;;;33.37;27.23;;;;;;;5.36;100.00;98491.16;5003111;28;20355;-52
2022/03/18 00:58:59;;;;;;;30.60;26.30;;;;;;;5.47;100.00;98492.13;4967820;28;20227;-53
2022/03/18 01:01:28;;;;;;;30.93;25.50;;;;;;;5.40;100.00;98491.75;5002805;28;20452;-51
2022/03/18 01:03:58;;;;;;;30.03;26.80;;;;;;;5.36;100.00;98495.59;5006580;28;20213;-50
2022/03/18 01:06:26;;;;;;;29.03;26.00;;;;;;;5.31;100.00;98484.59;4980941;28;20315;-53
2022/03/18 01:08:54;;;;;;;32.83;28.17;;;;;;;5.27;100.00;98491.84;4991978;28;20315;-51
2022/03/18 01:11:22;;;;;;;32.83;26.17;;;;;;;5.17;100.00;98490.91;5003301;28;20325;-52
2022/03/18 01:17:33;;;;;;;30.97;27.60;;;;;;;5.23;100.00;98498.31;4999278;28;20676;-51
2022/03/18 01:20:02;;;;;;;31.50;27.97;;;;;;;5.28;100.00;98496.16;5006731;28;20219;-48
2022/03/18 01:22:31;;;;;;;33.47;28.50;;;;;;;5.20;100.00;98495.91;4982740;28;20295;-51
2022/03/18 01:24:59;;;;;;;33.07;28.83;;;;;;;5.18;100.00;98500.44;4993208;28;20546;-51
2022/03/18 01:27:27;;;;;;;32.20;28.30;;;;;;;5.10;100.00;98503.66;5002957;28;20228;-49
2022/03/18 01:29:55;;;;;;;34.30;27.57;;;;;;;5.16;100.00;98499.75;4966187;28;20243;-48
2022/03/18 01:32:23;;;;;;;33.40;27.87;;;;;;;5.10;100.00;98498.41;5003916;28;20204;-51
2022/03/18 01:34:53;;;;;;;34.33;28.00;;;;;;;5.14;100.00;98501.66;5009070;28;20216;-54
2022/03/18 01:37:23;;;;;;;34.70;28.13;;;;;;;4.94;100.00;98509.25;4979989;28;20237;-52
2022/03/18 01:39:51;;;;;;;29.13;26.07;;;;;;;4.97;100.00;98514.28;5004707;28;20884;-50
2022/03/18 01:42:19;;;;;;;34.60;27.63;;;;;;;4.80;100.00;98499.78;4986618;28;20216;-49
2022/03/18 01:44:47;;;;;;;34.37;28.83;;;;;;;4.78;100.00;98513.03;4960188;28;20235;-53
2022/03/18 01:47:15;;;;;;;33.40;29.20;;;;;;;4.60;100.00;98512.59;5003869;28;20204;-54
2022/03/18 01:49:44;;;;;;;32.10;28.33;;;;;;;4.69;100.00;98513.72;4998175;28;20306;-49
2022/03/18 01:52:12;;;;;;;32.10;27.60;;;;;;;4.63;100.00;98501.03;4997634;28;20649;-54
2022/03/18 01:54:45;;;;;;;34.60;28.57;;;;;;;4.63;100.00;98514.16;4995585;28;20219;-50
2022/03/18 01:57:15;;;;;;;37.10;28.67;;;;;;;4.55;100.00;98514.72;4988463;28;20224;-47
2022/03/18 01:59:44;;;;;;;34.13;28.80;;;;;;;4.59;100.00;98515.34;4961710;28;20299;-52
2022/03/18 02:02:12;;;;;;;36.73;30.37;;;;;;;4.67;100.00;98510.38;5006801;28;20476;-47
2022/03/18 02:04:40;;;;;;;41.57;30.60;;;;;;;4.65;100.00;98512.25;5004796;28;20205;-53
2022/03/18 02:07:09;;;;;;;36.43;29.70;;;;;;;4.56;100.00;98507.69;4999413;28;20207;-56
2022/03/18 02:09:38;;;;;;;38.40;30.17;;;;;;;4.63;100.00;98517.63;4986879;28;20236;-51
2022/03/18 02:12:09;;;;;;;39.77;32.43;;;;;;;4.71;100.00;98519.69;4990285;28;20355;-50
2022/03/18 02:14:40;;;;;;;36.70;30.90;;;;;;;4.61;100.00;98518.69;4958446;28;21019;-53
2022/03/18 02:17:09;;;;;;;34.63;29.77;;;;;;;4.59;100.00;98518.78;5004427;28;20869;-50
2022/03/18 02:19:39;;;;;;;41.70;31.03;;;;;;;4.52;100.00;98517.56;5003705;28;20212;-54
2022/03/18 02:22:10;;;;;;;37.07;32.10;;;;;;;4.56;100.00;98518.19;5005605;28;20573;-53
2022/03/18 02:24:41;;;;;;;35.90;31.03;;;;;;;4.72;100.00;98518.72;4982974;28;20599;-50
2022/03/18 02:27:09;;;;;;;39.87;31.33;;;;;;;4.63;100.00;98520.25;4983341;28;20225;-51
2022/03/18 02:29:38;;;;;;;40.50;31.60;;;;;;;4.78;100.00;98528.78;4956731;28;20270;-50
2022/03/18 02:32:07;;;;;;;35.17;30.17;;;;;;;4.70;100.00;98525.88;5002966;28;20288;-51
2022/03/18 02:34:37;;;;;;;39.53;30.97;;;;;;;4.72;100.00;98525.75;5002753;28;20605;-48
2022/03/18 02:37:05;;;;;;;39.73;32.27;;;;;;;4.71;100.00;98526.72;5000552;28;20282;-50
2022/03/18 02:39:34;;;;;;;39.37;31.60;;;;;;;4.56;100.00;98523.44;4974119;28;20266;-51
2022/03/18 02:42:04;;;;;;;37.03;31.33;;;;;;;4.62;100.00;98529.06;4988768;28;20564;-54
2022/03/18 02:44:33;;;;;;;38.57;31.47;;;;;;;4.63;100.00;98519.41;4999907;28;20257;-53
2022/03/18 02:47:02;;;;;;;38.97;31.60;;;;;;;4.78;100.00;98539.28;4971788;28;20220;-53
2022/03/18 02:49:30;;;;;;;35.17;30.27;;;;;;;4.61;100.00;98537.91;5002023;28;20575;-51
2022/03/18 02:51:58;;;;;;;40.03;31.40;;;;;;;4.51;100.00;98536.06;4999515;28;20273;-54
2022/03/18 02:54:26;;;;;;;38.70;32.33;;;;;;;4.49;100.00;98533.56;4981939;28;20208;-52
2022/03/18 02:56:54;;;;;;;36.87;31.07;;;;;;;4.51;100.00;98546.53;4985074;28;20308;-51
2022/03/18 02:59:24;;;;;;;39.20;33.20;;;;;;;4.48;100.00;98551.06;5007468;28;20220;-53
2022/03/18 03:01:52;;;;;;;42.87;32.67;;;;;;;4.41;100.00;98556.91;4956818;28;20299;-50
2022/03/18 03:04:20;;;;;;;38.73;31.63;;;;;;;4.39;100.00;98559.63;5006157;28;20632;-51
2022/03/18 03:09:34;;;;;;;38.73;31.20;;;;;;;4.30;100.00;98565.53;4981770;28;20204;-52
2022/03/18 03:12:02;;;;;;;42.67;32.20;;;;;;;4.28;100.00;98565.63;5008150;28;20562;-51
2022/03/18 03:14:32;;;;;;;40.87;32.77;;;;;;;4.23;100.00;98570.38;4991125;28;20235;-50
2022/03/18 03:17:00;;;;;;;39.57;32.53;;;;;;;4.14;100.00;98568.41;4963080;28;20287;-53
2022/03/18 03:19:28;;;;;;;42.30;31.97;;;;;;;3.94;100.00;98575.88;5005832;28;20632;-51
2022/03/18 03:21:57;;;;;;;43.10;32.87;;;;;;;3.90;100.00;98574.44;5004165;28;20825;-53
2022/03/18 03:24:26;;;;;;;37.50;30.33;;;;;;;3.80;100.00;98574.25;5007144;28;20298;-47
2022/03/18 03:26:54;;;;;;;41.03;32.33;;;;;;;3.80;100.00;98586.50;4982615;28;20221;-50
2022/03/18 03:29:22;;;;;;;40.67;33.10;;;;;;;3.76;100.00;98583.25;4992301;28;20675;-54
2022/03/18 03:31:52;;;;;;;41.87;33.03;;;;;;;3.76;100.00;98588.50;4959678;28;20977;-49
2022/03/18 03:34:20;;;;;;;43.57;33.03;;;;;;;3.67;100.00;98590.00;5004143;28;20236;-52
2022/03/18 03:36:48;;;;;;;43.20;31.70;;;;;;;3.69;100.00;98593.34;5002753;28;20783;-52
2022/03/18 03:39:16;;;;;;;43.90;31.60;;;;;;;3.46;100.00;98593.13;4998821;28;20754;-49
2022/03/18 03:41:44;;;;;;;44.33;32.73;;;;;;;3.43;100.00;98598.56;4982707;28;20211;-49
2022/03/18 03:44:13;;;;;;;44.90;33.20;;;;;;;3.42;100.00;98596.91;4991318;28;21041;-52
2022/03/18 03:46:41;;;;;;;39.73;31.13;;;;;;;3.41;100.00;98604.84;5005358;28;20228;-51
2022/03/18 03:49:10;;;;;;;40.77;32.03;;;;;;;3.51;100.00;98608.53;4961818;28;20646;-56
2022/03/18 03:51:39;;;;;;;42.43;32.33;;;;;;;3.40;100.00;98616.25;5002534;28;20426;-50
2022/03/18 03:54:07;;;;;;;38.83;32.20;;;;;;;3.31;100.00;98617.75;5005156;28;20430;-53
2022/03/18 03:56:35;;;;;;;38.93;31.97;;;;;;;3.22;100.00;98611.34;5001499;28;20321;-52
2022/03/18 03:59:03;;;;;;;46.63;32.73;;;;;;;3.20;100.00;98615.84;4973310;28;20812;-54
2022/03/18 04:01:32;;;;;;;39.50;32.03;;;;;;;3.22;100.00;98631.44;4983895;28;20243;-54
2022/03/18 04:04:01;;;;;;;44.70;32.50;;;;;;;3.22;100.00;98624.44;4958124;28;20359;-52
2022/03/18 04:06:30;;;;;;;37.10;30.00;;;;;;;3.27;100.00;98626.75;5003726;28;20664;-52
2022/03/18 04:08:59;;;;;;;47.53;32.10;;;;;;;3.31;100.00;98636.09;5001707;28;20779;-56
2022/03/18 04:11:27;;;;;;;46.67;33.07;;;;;;;3.26;100.00;98632.94;5001792;28;20201;-51
2022/03/18 04:13:56;;;;;;;43.03;30.30;;;;;;;3.10;100.00;98631.31;4976326;28;20502;-51
2022/03/18 04:16:24;;;;;;;38.93;30.17;;;;;;;3.12;100.00;98639.91;4989433;28;20229;-47
2022/03/18 04:18:52;;;;;;;36.93;29.20;;;;;;;3.27;100.00;98637.22;4957583;28;21340;-53
2022/03/18 04:21:20;;;;;;;40.37;31.27;;;;;;;3.18;100.00;98643.91;5002293;28;20209;-52
2022/03/18 04:23:50;;;;;;;38.23;32.23;;;;;;;3.22;100.00;98645.38;5002652;28;20873;-54
2022/03/18 04:26:21;;;;;;;41.03;29.57;;;;;;;3.14;100.00;98645.88;5006392;28;20316;-55
2022/03/18 04:28:49;;;;;;;39.87;30.33;;;;;;;3.09;100.00;98661.06;4976915;28;21075;-55
2022/03/18 04:31:17;;;;;;;34.53;28.87;;;;;;;3.10;100.00;98660.13;4988743;28;20520;-55
2022/03/18 04:33:46;;;;;;;38.07;29.87;;;;;;;2.93;100.00;98663.84;4967611;28;22348;-48
2022/03/18 04:36:14;;;;;;;37.47;29.67;;;;;;;3.09;100.00;98668.09;5006299;28;20221;-53
2022/03/18 04:38:42;;;;;;;33.73;27.77;;;;;;;3.10;100.00;98667.16;5003672;28;20484;-53
2022/03/18 04:41:12;;;;;;;35.80;28.97;;;;;;;2.92;100.00;98672.63;4972946;28;20468;-50
2022/03/18 04:43:41;;;;;;;35.57;28.50;;;;;;;2.95;100.00;98675.03;4983238;28;20204;-53
2022/03/18 04:46:09;;;;;;;40.27;29.90;;;;;;;2.90;100.00;98679.75;4966984;28;20944;-51
2022/03/18 04:48:37;;;;;;;35.67;28.43;;;;;;;2.96;100.00;98679.34;5007577;28;20578;-54
2022/03/18 04:51:05;;;;;;;40.70;29.13;;;;;;;2.92;100.00;98684.88;4958494;28;21673;-50
2022/03/18 04:53:35;;;;;;;39.90;28.47;;;;;;;2.94;100.00;98691.69;5007169;28;20398;-58
2022/03/18 04:56:04;;;;;;;35.13;27.87;;;;;;;2.89;100.00;98693.78;5002117;28;20239;-53
2022/03/18 04:58:33;;;;;;;35.50;28.77;;;;;;;2.90;100.00;98690.22;5002660;28;20256;-52
2022/03/18 05:01:03;;;;;;;35.13;28.80;;;;;;;2.88;100.00;98689.47;4939014;28;20349;-52
2022/03/18 05:03:31;;;;;;;37.17;28.37;;;;;;;2.84;100.00;98682.75;4984338;28;20212;-52
2022/03/18 05:06:00;;;;;;;37.50;28.60;;;;;;;3.03;100.00;98700.75;4961424;28;20660;-48
2022/03/18 05:08:28;;;;;;;39.30;28.90;;;;;;;3.07;100.00;98696.16;4999214;28;20231;-52
2022/03/18 05:10:57;;;;;;;36.23;26.93;;;;;;;2.94;100.00;98702.16;5003012;28;21089;-54
2022/03/18 05:13:25;;;;;;;41.60;29.50;;;;;;;2.87;100.00;98711.34;5006335;28;20774;-49
2022/03/18 05:15:56;;;;;;;35.90;27.83;;;;;;;2.90;100.00;98708.53;4982467;28;20208;-57
2022/03/18 05:18:24;;;;;;;35.43;27.33;;;;;;;2.92;100.00;98709.28;4974945;28;20233;-51
2022/03/18 05:20:52;;;;;;;37.63;28.60;;;;;;;2.87;100.00;98711.34;4960821;28;20248;-49
2022/03/18 05:23:20;;;;;;;34.10;29.13;;;;;;;2.84;100.00;98720.25;4999979;28;20235;-53
2022/03/18 05:25:49;;;;;;;35.30;28.00;;;;;;;2.80;100.00;98717.91;4996794;28;20220;-56
2022/03/18 05:28:17;;;;;;;36.07;28.33;;;;;;;2.80;100.00;98723.97;5005919;28;20283;-49
2022/03/18 05:30:46;;;;;;;38.73;29.83;;;;;;;2.85;100.00;98732.41;4984813;28;20283;-58
2022/03/18 05:33:15;;;;;;;37.43;28.13;;;;;;;2.79;100.00;98735.38;4993991;28;20220;-52
2022/03/18 05:35:44;;;;;;;36.00;28.87;;;;;;;2.83;100.00;98742.13;4951004;28;20334;-54
2022/03/18 05:38:12;;;;;;;42.17;31.43;;;;;;;2.87;100.00;98743.63;5006675;28;20681;-51
2022/03/18 05:40:40;;;;;;;37.40;29.07;;;;;;;2.88;100.00;98747.94;5004165;28;20228;-53
2022/03/18 05:43:08;;;;;;;41.93;31.47;;;;;;;2.87;100.00;98748.88;5004372;28;20312;-56
2022/03/18 05:45:36;;;;;;;43.57;32.17;;;;;;;2.95;100.00;98747.53;4986776;28;20612;-52
2022/03/18 05:48:07;;;;;;;41.10;32.73;;;;;;;2.91;100.00;98752.09;4990305;28;20231;-50
2022/03/18 05:50:37;;;;;;;47.80;32.30;;;;;;;2.91;100.00;98753.91;4988998;28;20216;-52
2022/03/18 05:53:05;;;;;;;43.80;33.13;;;;;;;3.05;100.00;98753.84;4971403;28;20216;-53
2022/03/18 05:58:16;;;;;;;42.33;31.93;;;;;;;3.09;100.00;98767.63;5008383;28;20649;-52
2022/03/18 06:00:44;;;;;;;44.23;33.23;;;;;;;3.08;100.00;98764.13;5001183;28;20287;-54
2022/03/18 06:03:13;;;;;;;42.87;33.30;;;;;;;3.10;100.00;98764.88;4988302;28;20327;-49
2022/03/18 06:05:43;;;;;;;42.07;31.20;;;;;;;3.43;100.00;98768.06;4952383;28;20616;-58
2022/03/18 06:13:42;;;;;;;45.20;34.23;;;;;;;3.41;100.00;98777.78;4999252;28;20212;-52
2022/03/18 06:16:10;;;;;;;46.77;34.73;;;;;;;3.50;100.00;98786.84;5006201;28;20721;-55
2022/03/18 06:18:40;;;;;;;46.77;35.30;;;;;;;3.51;100.00;98783.28;4974869;28;20431;-53
2022/03/18 06:21:09;;;;;;;43.23;33.87;;;;;;;3.58;100.00;98788.03;4973633;28;20214;-54
2022/03/18 06:23:38;;;;;;;52.30;36.33;;;;;;;3.50;100.00;98789.47;4956442;28;20613;-56
2022/03/18 06:26:06;;;;;;;41.30;33.50;;;;;;;3.61;100.00;98797.50;4999466;28;20756;-57
2022/03/18 06:28:34;;;;;;;42.67;31.73;;;;;;;3.76;100.00;98793.00;5001817;28;20341;-52
2022/03/18 06:31:03;;;;;;;49.10;35.20;;;;;;;3.71;100.00;98800.31;5002594;28;20208;-51
2022/03/18 06:33:32;;;;;;;49.87;33.03;;;;;;;3.78;100.00;98800.78;4982909;28;20391;-50
2022/03/18 06:36:01;;;;;;;46.33;35.00;;;;;;;4.00;100.00;98806.28;4995089;28;20307;-52
2022/03/18 06:38:31;;;;;;;48.63;33.73;;;;;;;4.01;100.00;98805.34;4949159;28;20574;-55
2022/03/18 06:40:59;;;;;;;45.53;33.97;;;;;;;4.16;100.00;98811.31;5006708;28;20204;-56
2022/03/18 06:43:27;;;;;;;42.33;32.80;;;;;;;4.23;100.00;98811.75;5004007;28;20602;-53
2022/03/18 06:45:55;;;;;;;53.70;36.33;;;;;;;4.20;100.00;98809.34;5005516;28;20323;-50
2022/03/18 06:48:25;;;;;;;46.43;34.00;;;;;;;4.41;100.00;98812.28;4990074;28;20517;-51
2022/03/18 06:50:53;;;;;;;49.80;34.87;;;;;;;4.49;100.00;98817.03;4991280;28;20212;-49
2022/03/18 06:53:21;;;;;;;45.37;33.63;;;;;;;4.42;100.00;98813.16;4994230;28;20666;-53
2022/03/18 06:55:51;;;;;;;51.27;36.03;;;;;;;4.63;100.00;98822.16;4964849;28;20974;-54
2022/03/18 06:58:19;;;;;;;49.90;35.10;;;;;;;4.75;100.00;98822.28;5008137;28;20498;-52
2022/03/18 07:00:47;;;;;;;45.67;35.53;;;;;;;4.80;100.00;98833.31;5006227;28;20669;-55
2022/03/18 07:03:16;;;;;;;46.97;34.80;;;;;;;4.74;100.00;98818.81;5005526;28;20204;-52
2022/03/18 07:05:49;;;;;;;50.07;34.93;;;;;;;4.83;100.00;98832.22;4990616;28;20212;-57
2022/03/18 07:08:17;;;;;;;45.33;34.90;;;;;;;4.96;100.00;98834.84;4993637;28;20247;-53
2022/03/18 07:10:45;;;;;;;47.77;34.67;;;;;;;4.95;100.00;98833.16;4968616;28;20415;-49
2022/03/18 07:13:15;;;;;;;47.93;34.73;;;;;;;5.40;100.00;98841.38;5007594;28;20597;-50
2022/03/18 07:15:44;;;;;;;49.83;37.53;;;;;;;5.42;100.00;98844.72;5006929;28;20492;-49
2022/03/18 07:18:11;;;;;;;50.60;35.70;;;;;;;5.29;100.00;98849.19;5007796;28;20903;-49
2022/03/18 07:20:40;;;;;;;47.73;36.20;;;;;;;5.59;100.00;98854.03;4991481;28;20505;-52
2022/03/18 07:23:10;;;;;;;50.00;37.30;;;;;;;5.77;100.00;98864.16;4978129;28;20444;-56
2022/03/18 07:25:40;;;;;;;46.87;36.10;;;;;;;5.90;100.00;98856.22;4968212;28;20216;-54
2022/03/18 07:28:09;;;;;;;46.90;35.70;;;;;;;6.00;100.00;98857.22;5004358;28;20370;-57
2022/03/18 07:30:40;;;;;;;48.47;36.40;;;;;;;6.08;100.00;98862.78;5006293;28;20291;-54
2022/03/18 07:33:08;;;;;;;51.17;37.37;;;;;;;6.01;100.00;98868.59;5009268;28;20291;-51
2022/03/18 07:35:37;;;;;;;46.93;35.00;;;;;;;6.21;100.00;98872.38;4987064;28;21231;-55
2022/03/18 07:38:08;;;;;;;47.97;34.87;;;;;;;6.47;100.00;98874.84;4982444;28;20410;-51
2022/03/18 07:40:37;;;;;;;45.80;35.67;;;;;;;6.55;100.00;98867.22;4964622;28;20299;-55
2022/03/18 07:43:06;;;;;;;49.80;37.03;;;;;;;6.77;100.00;98869.03;5007844;28;20291;-54
2022/03/18 07:45:36;;;;;;;47.03;35.63;;;;;;;6.72;100.00;98875.63;5003831;28;20209;-55
2022/03/18 07:48:08;;;;;;;52.30;36.10;;;;;;;6.92;100.00;98885.47;5002439;28;20247;-50
2022/03/18 07:50:40;;;;;;;47.57;34.57;;;;;;;7.10;100.00;98879.72;4989119;28;20978;-54
2022/03/18 07:53:09;;;;;;;51.03;35.73;;;;;;;6.92;100.00;98890.72;4996446;28;20703;-53
2022/03/18 07:55:40;;;;;;;47.37;36.77;;;;;;;6.84;100.00;98885.22;4989943;28;20311;-52
2022/03/18 07:58:08;;;;;;;49.33;35.97;;;;;;;7.19;100.00;98892.19;4965904;28;20640;-55
2022/03/18 08:00:36;;;;;;;45.90;36.00;;;;;;;7.16;100.00;98896.84;5003540;28;20253;-51
2022/03/18 08:03:06;;;;;;;45.83;33.43;;;;;;;7.27;100.00;98893.38;5005104;28;20284;-55
2022/03/18 08:05:35;;;;;;;50.20;38.33;;;;;;;7.25;100.00;98893.50;4980501;28;21138;-48
2022/03/18 08:08:03;;;;;;;45.93;36.67;;;;;;;7.43;100.00;98906.19;4997487;28;20339;-52
2022/03/18 08:10:32;;;;;;;51.70;35.10;;;;;;;7.26;100.00;98903.09;4987094;28;20382;-52
2022/03/18 08:13:00;;;;;;;53.83;37.37;;;;;;;7.38;100.00;98907.41;4965858;28;20215;-51
2022/03/18 08:15:29;;;;;;;46.63;35.47;;;;;;;7.73;100.00;98916.09;5006229;28;20884;-50
2022/03/18 08:17:57;;;;;;;46.30;34.47;;;;;;;7.52;100.00;98916.84;5008398;28;20286;-53
2022/03/18 08:20:27;;;;;;;45.57;36.63;;;;;;;7.59;100.00;98908.44;5005225;28;20292;-53
2022/03/18 08:22:56;;;;;;;46.83;36.67;;;;;;;7.53;100.00;98926.44;4987370;28;20300;-52
2022/03/18 08:25:24;;;;;;;47.43;35.17;;;;;;;7.78;100.00;98910.44;4980195;28;20643;-53
2022/03/18 08:27:52;;;;;;;45.23;33.47;;;;;;;8.00;100.00;98919.28;4968696;28;20849;-50
2022/03/18 08:30:20;;;;;;;46.43;34.43;;;;;;;8.39;100.00;98919.63;5005241;28;20290;-51
2022/03/18 08:32:49;;;;;;;43.97;34.13;;;;;;;8.04;100.00;98926.00;5002611;28;20204;-50
2022/03/18 08:35:17;;;;;;;45.03;35.10;;;;;;;8.45;100.00;98926.19;5001727;28;20232;-52
2022/03/18 08:37:58;;;;;;;40.90;33.40;;;;;;;8.59;100.00;98941.75;4985585;28;20536;-54
2022/03/18 08:40:28;;;;;;;42.57;34.03;;;;;;;8.66;100.00;98939.44;4988799;28;20216;-53
2022/03/18 08:42:57;;;;;;;41.90;33.13;;;;;;;9.11;100.00;98933.03;4991748;28;20260;-49
2022/03/18 08:45:26;;;;;;;45.03;34.67;;;;;;;8.98;100.00;98944.66;4959678;28;20354;-51
2022/03/18 08:47:55;;;;;;;41.37;33.00;;;;;;;8.95;100.00;98946.72;5008846;28;20228;-51
2022/03/18 08:50:24;;;;;;;44.43;32.93;;;;;;;9.24;100.00;98948.69;5004964;28;20697;-51
2022/03/18 08:52:54;;;;;;;39.17;31.27;;;;;;;9.11;100.00;98952.38;4979176;28;20208;-51
2022/03/18 08:55:23;;;;;;;41.30;33.87;;;;;;;8.69;100.00;98952.38;4986348;28;20549;-52
2022/03/18 08:57:51;;;;;;;44.47;32.53;;;;;;;8.91;100.00;98948.81;4986813;28;20232;-50
2022/03/18 09:00:20;;;;;;;39.80;33.00;;;;;;;9.07;100.00;98955.41;4966422;28;20298;-54
2022/03/18 09:02:49;;;;;;;37.93;32.20;;;;;;;9.13;100.00;98944.31;4988666;28;20219;-50
2022/03/18 09:05:18;;;;;;;36.00;30.37;;;;;;;9.60;100.00;98948.25;5007856;28;20206;-54
2022/03/18 09:07:47;;;;;;;38.67;31.07;;;;;;;9.45;100.00;98937.19;4989952;28;20228;-51
2022/03/18 09:10:17;;;;;;;41.27;32.27;;;;;;;9.32;100.00;98948.84;5007312;28;20228;-54
2022/03/18 09:12:46;;;;;;;38.57;30.70;;;;;;;9.69;100.00;98944.81;4989812;28;20204;-53
2022/03/18 09:15:14;;;;;;;36.73;30.97;;;;;;;9.60;100.00;98951.75;4969072;28;20350;-55
2022/03/18 09:17:42;;;;;;;41.10;31.70;;;;;;;9.63;100.00;98946.19;4990979;28;20705;-50
2022/03/18 09:20:11;;;;;;;37.67;32.50;;;;;;;9.82;100.00;98952.50;5005727;28;20197;-52
2022/03/18 09:22:39;;;;;;;38.87;31.10;;;;;;;10.18;100.00;98962.63;5005716;28;20212;-49
2022/03/18 09:25:08;;;;;;;37.70;31.57;;;;;;;10.07;100.00;98958.28;4982885;28;20286;-51
2022/03/18 09:27:38;;;;;;;41.83;32.67;;;;;;;10.35;100.00;98969.88;5005198;28;20795;-49
2022/03/18 09:30:09;;;;;;;36.23;30.00;;;;;;;10.30;100.00;98966.81;4959415;28;20286;-53
2022/03/18 09:32:40;;;;;;;37.30;30.27;;;;;;;10.33;100.00;98971.81;4990275;28;20302;-51
2022/03/18 09:35:09;;;;;;;35.60;31.80;;;;;;;10.14;100.00;98970.84;4976574;28;20204;-53
2022/03/18 09:37:38;;;;;;;40.43;31.87;;;;;;;10.26;100.00;98965.41;5004353;28;20728;-53
2022/03/18 09:40:09;;;;;;;37.03;31.00;;;;;;;10.51;100.00;98973.84;4983633;28;20208;-53
2022/03/18 09:42:58;;;;;;;37.43;32.47;;;;;;;11.10;95.35;98977.25;5006022;28;20204;-56
2022/03/18 09:45:31;;;;;;;40.63;31.30;;;;;;;10.73;91.28;98972.69;4948116;28;21009;-52
2022/03/18 09:48:01;;;;;;;37.17;29.80;;;;;;;10.93;98.59;98978.81;4988838;28;20232;-51
2022/03/18 09:50:30;;;;;;;36.57;32.40;;;;;;;10.39;100.00;98971.25;5003187;28;20274;-55
2022/03/18 09:52:58;;;;;;;37.60;31.03;;;;;;;11.23;92.64;98978.75;5005516;28;20232;-52
2022/03/18 09:55:27;;;;;;;34.43;30.37;;;;;;;10.99;92.31;98983.53;4977180;28;20247;-49
2022/03/18 09:57:55;;;;;;;36.07;30.83;;;;;;;10.76;90.21;98987.47;5007612;28;20234;-55
2022/03/18 10:00:29;;;;;;;34.17;29.33;;;;;;;11.18;85.49;98988.97;4945716;28;21398;-50
2022/03/18 10:03:08;;;;;;;34.10;30.10;;;;;;;11.19;86.13;98985.31;4987157;28;20701;-53
2022/03/18 10:05:46;;;;;;;38.03;30.33;;;;;;;11.22;80.92;98991.19;5000841;28;20405;-51
2022/03/18 10:08:15;;;;;;;33.93;29.00;;;;;;;11.27;84.09;98980.13;5003401;28;20407;-53
2022/03/18 10:10:47;;;;;;;36.30;29.83;;;;;;;11.48;79.31;98982.56;5001084;28;20315;-53
2022/03/18 10:13:16;;;;;;;36.27;29.77;;;;;;;11.49;81.31;98975.47;4982726;28;20380;-50
2022/03/18 10:15:46;;;;;;;32.40;28.73;;;;;;;11.28;79.31;98987.09;4990640;28;20208;-49
2022/03/18 10:18:16;;;;;;;34.10;28.10;;;;;;;11.10;76.41;98973.75;4948009;28;20239;-51
2022/03/18 10:20:47;;;;;;;31.03;27.63;;;;;;;11.72;69.20;98979.38;5003465;28;20762;-49
2022/03/18 10:23:25;;;;;;;31.93;28.43;;;;;;;11.33;69.92;98990.16;5004091;28;20231;-49
2022/03/18 10:25:55;;;;;;;31.07;27.80;;;;;;;11.54;73.99;98995.25;5005594;28;20212;-52
2022/03/18 10:28:36;;;;;;;31.00;27.33;;;;;;;11.69;70.60;98995.63;4985780;28;20430;-49
2022/03/18 10:31:18;;;;;;;32.70;29.00;;;;;;;12.01;68.60;98993.56;4971528;28;20290;-50
2022/03/18 10:39:30;;;;;;;30.80;27.47;;;;;;;13.05;65.33;98995.81;4997789;28;20321;-49
2022/03/18 10:42:00;;;;;;;31.17;26.87;;;;;;;12.48;62.25;98991.69;5005253;28;20263;-53
2022/03/18 10:44:31;;;;;;;30.17;26.90;;;;;;;12.76;61.51;98995.09;4983583;28;20413;-52
2022/03/18 10:47:01;;;;;;;29.70;26.50;;;;;;;12.30;65.28;99001.34;4985290;28;20731;-52
2022/03/18 10:49:29;;;;;;;31.87;26.43;;;;;;;12.22;59.13;99006.56;4962587;28;20234;-55
2022/03/18 10:52:09;;;;;;;31.77;26.43;;;;;;;12.59;58.58;99000.28;4997286;28;20292;-53
2022/03/18 10:54:38;;;;;;;29.80;26.67;;;;;;;12.64;58.21;98999.00;5002999;28;20282;-54
2022/03/18 10:57:06;;;;;;;31.00;25.47;;;;;;;12.39;60.29;99012.03;5003971;28;20212;-53
2022/03/18 10:59:35;;;;;;;31.97;27.17;;;;;;;12.70;58.78;99009.00;4983823;28;20538;-54
2022/03/18 11:02:06;;;;;;;33.20;26.97;;;;;;;12.34;60.67;99009.00;4990245;28;20239;-49
2022/03/18 11:04:34;;;;;;;31.27;27.97;;;;;;;12.62;58.02;99022.25;4949594;28;20491;-53
2022/03/18 11:12:36;;;;;;;27.63;24.77;;;;;;;11.95;59.28;99018.03;5003460;28;20324;-56
2022/03/18 11:15:05;;;;;;;26.47;23.67;;;;;;;11.86;56.43;99011.78;4984502;28;20207;-53
2022/03/18 11:17:35;;;;;;;27.13;24.23;;;;;;;12.09;56.61;99022.88;4987373;28;20244;-51
2022/03/18 11:20:04;;;;;;;28.43;24.70;;;;;;;11.93;59.13;99025.28;4958921;28;20633;-56
2022/03/18 11:22:33;;;;;;;28.10;24.63;;;;;;;12.02;57.21;99029.75;4995997;28;20297;-49
2022/03/18 11:25:02;;;;;;;28.77;25.60;;;;;;;12.08;59.05;99018.53;5007289;28;20299;-49
2022/03/18 11:27:30;;;;;;;28.97;25.07;;;;;;;11.96;56.85;99031.16;5003314;28;20196;-52
2022/03/18 11:30:17;;;;;;;28.90;25.00;;;;;;;11.79;55.67;99026.63;4981291;28;20220;-54
2022/03/18 11:33:20;;;;;;;32.70;25.50;;;;;;;11.68;56.82;99017.03;4993014;28;20303;-48
2022/03/18 11:36:09;;;;;;;30.20;24.87;;;;;;;11.39;59.55;99026.75;4967683;28;20220;-53
2022/03/18 11:38:53;;;;;;;31.87;24.93;;;;;;;11.93;58.97;99020.81;5006118;28;22188;-52
2022/03/18 11:41:21;;;;;;;33.80;26.23;;;;;;;12.22;61.49;99027.84;5004819;28;20477;-51
2022/03/18 11:43:51;;;;;;;29.20;25.07;;;;;;;12.42;58.00;99020.56;5005364;28;20232;-49
2022/03/18 11:46:21;;;;;;;28.30;24.33;;;;;;;12.23;59.87;99020.69;4990711;28;21553;-52
2022/03/18 11:48:52;;;;;;;30.27;24.93;;;;;;;12.81;57.13;99026.56;4989268;28;20239;-51
2022/03/18 11:51:24;;;;;;;28.40;24.73;;;;;;;12.43;55.76;99018.72;4964622;28;21085;-54
2022/03/18 11:53:54;;;;;;;24.90;22.20;;;;;;;12.51;54.01;99015.31;5005077;28;20263;-53
2022/03/18 11:56:25;;;;;;;24.57;21.77;;;;;;;13.03;52.89;99027.91;5007733;28;20209;-50
2022/03/18 11:58:53;;;;;;;25.60;22.90;;;;;;;12.41;51.65;99023.34;5005324;28;20436;-53